Time;durP1;ratioP1;P1;durP2;ratioP2;P2;SDS_P1;SDS_P2;PMS_P1;PMS_P2;Temp;Humidity;BMP_temperature;BMP_pressure;BME280_temperature;BME280_humidity;BME280_pressure;Samples;Min_cycle;Max_cycle;Signal;HPM_P1;HPM_P2
2022/08/01 00:01:36;;;;;;;6.85;3.20;;;;;;;;;;1677282;83;21045;-70
2022/08/01 00:04:04;;;;;;;10.20;3.10;;;;;;;;;;1728334;82;21058;-69
2022/08/01 00:06:31;;;;;;;6.72;3.33;;;;;;;;;;1734068;82;21035;-69
2022/08/01 00:08:59;;;;;;;7.12;2.85;;;;;;;;;;1731843;81;21062;-70
2022/08/01 00:11:25;;;;;;;4.62;2.90;;;;;;;;;;1688619;83;21043;-69
2022/08/01 00:13:54;;;;;;;5.55;3.00;;;;;;;;;;1666090;85;21069;-69
2022/08/01 00:16:22;;;;;;;5.62;3.40;;;;;;;;;;1719284;81;21071;-69
2022/08/01 00:18:50;;;;;;;6.72;3.33;;;;;;;;;;1687108;83;21043;-70
2022/08/01 00:21:17;;;;;;;6.37;3.25;;;;;;;;;;1733161;82;21503;-69
2022/08/01 00:23:45;;;;;;;7.37;3.50;;;;;;;;;;1723861;81;21086;-70
2022/08/01 00:26:13;;;;;;;7.60;3.45;;;;;;;;;;1722753;81;21070;-69
2022/08/01 00:28:41;;;;;;;7.92;3.62;;;;;;;;;;1727559;80;21038;-70
2022/08/01 00:31:07;;;;;;;8.33;3.40;;;;;;;;;;1725335;80;21084;-69
2022/08/01 00:33:34;;;;;;;7.50;3.77;;;;;;;;;;1681945;81;21052;-69
2022/08/01 00:36:01;;;;;;;9.70;3.45;;;;;;;;;;1658114;84;21134;-69
2022/08/01 00:38:28;;;;;;;5.80;3.33;;;;;;;;;;1716370;81;21044;-70
2022/08/01 00:40:55;;;;;;;6.67;3.20;;;;;;;;;;1729258;80;21048;-69
2022/08/01 00:43:22;;;;;;;8.90;3.42;;;;;;;;;;1687906;82;21053;-69
2022/08/01 00:45:49;;;;;;;7.10;3.55;;;;;;;;;;1663993;85;21095;-70
2022/08/01 00:48:16;;;;;;;7.33;3.22;;;;;;;;;;1665932;84;21065;-69
2022/08/01 00:50:43;;;;;;;6.22;3.65;;;;;;;;;;1681480;84;21049;-71
2022/08/01 00:53:10;;;;;;;7.33;3.75;;;;;;;;;;1680263;83;21068;-69
2022/08/01 00:55:37;;;;;;;11.65;3.58;;;;;;;;;;1703908;83;21528;-70
2022/08/01 00:58:04;;;;;;;6.42;3.42;;;;;;;;;;1702034;81;21050;-69
2022/08/01 01:00:32;;;;;;;7.55;3.65;;;;;;;;;;1689222;83;21064;-69
2022/08/01 01:02:58;;;;;;;8.25;3.20;;;;;;;;;;1693415;83;21080;-69
2022/08/01 01:05:25;;;;;;;6.65;3.40;;;;;;;;;;1705209;83;21553;-69
2022/08/01 01:08:14;;;;;;;4.55;3.10;;;;;;;;;;1746476;80;21043;-70
2022/08/01 01:10:54;;;;;;;7.15;3.47;;;;;;;;;;1720322;81;21081;-69
2022/08/01 01:13:33;;;;;;;10.35;3.70;;;;;;;;;;1725388;81;21054;-69
2022/08/01 01:16:04;;;;;;;8.38;3.70;;;;;;;;;;1693117;83;21068;-71
2022/08/01 01:18:33;;;;;;;7.85;3.70;;;;;;;;;;1709701;83;21097;-70
2022/08/01 01:21:22;;;;;;;9.23;3.40;;;;;;;;;;1662218;84;21083;-70
2022/08/01 01:24:12;;;;;;;9.90;3.45;;;;;;;;;;1699393;83;21065;-70
2022/08/01 01:26:49;;;;;;;8.60;3.20;;;;;;;;;;1693012;83;21057;-71
2022/08/01 01:29:31;;;;;;;5.62;2.90;;;;;;;;;;1713704;83;21093;-70
2022/08/01 01:32:04;;;;;;;7.55;3.25;;;;;;;;;;1737098;80;21038;-70
2022/08/01 01:34:34;;;;;;;6.83;2.92;;;;;;;;;;1745098;82;21508;-70
2022/08/01 01:37:03;;;;;;;7.60;3.50;;;;;;;;;;1727269;81;21121;-70
2022/08/01 01:39:30;;;;;;;6.22;2.80;;;;;;;;;;1725196;81;21043;-69
2022/08/01 01:41:59;;;;;;;9.55;3.60;;;;;;;;;;1707697;82;21005;-70
2022/08/01 01:44:27;;;;;;;8.28;3.20;;;;;;;;;;1682333;83;21039;-70
2022/08/01 01:46:56;;;;;;;10.40;3.47;;;;;;;;;;1667909;85;21020;-70
2022/08/01 01:49:26;;;;;;;7.00;3.20;;;;;;;;;;1731608;81;21075;-69
2022/08/01 01:51:54;;;;;;;8.43;3.40;;;;;;;;;;1733281;81;21142;-71
2022/08/01 01:54:23;;;;;;;9.60;3.27;;;;;;;;;;1720157;81;21551;-70
2022/08/01 01:56:50;;;;;;;6.60;3.35;;;;;;;;;;1720093;81;21311;-70
2022/08/01 01:59:20;;;;;;;5.45;3.00;;;;;;;;;;1715064;81;21560;-71
2022/08/01 02:01:51;;;;;;;9.05;3.40;;;;;;;;;;1722243;81;21524;-70
2022/08/01 02:04:20;;;;;;;5.28;3.15;;;;;;;;;;1713030;82;21055;-70
2022/08/01 02:06:47;;;;;;;8.50;3.10;;;;;;;;;;1684182;83;21158;-71
2022/08/01 02:09:19;;;;;;;7.10;3.30;;;;;;;;;;1664461;85;21083;-71
2022/08/01 02:11:48;;;;;;;8.88;3.52;;;;;;;;;;1673903;84;21571;-70
2022/08/01 02:14:16;;;;;;;8.38;3.12;;;;;;;;;;1723690;80;21070;-71
2022/08/01 02:16:45;;;;;;;8.78;3.33;;;;;;;;;;1749748;81;21031;-70
2022/08/01 02:19:12;;;;;;;13.35;3.35;;;;;;;;;;1733081;80;21512;-70
2022/08/01 02:21:48;;;;;;;6.53;2.95;;;;;;;;;;1713951;81;21051;-70
2022/08/01 02:24:28;;;;;;;9.48;3.10;;;;;;;;;;1712490;82;21030;-70
2022/08/01 02:26:57;;;;;;;20.72;5.45;;;;;;;;;;1721930;81;22259;-69
2022/08/01 02:29:31;;;;;;;12.80;4.65;;;;;;;;;;1728962;81;21024;-70
2022/08/01 02:31:58;;;;;;;12.55;4.50;;;;;;;;;;1715523;81;21007;-71
2022/08/01 02:34:27;;;;;;;4.62;3.87;;;;;;;;;;1694572;81;21040;-70
2022/08/01 02:36:55;;;;;;;6.03;4.00;;;;;;;;;;1678080;85;21044;-70
2022/08/01 02:39:23;;;;;;;7.70;3.67;;;;;;;;;;1738352;82;21063;-70
2022/08/01 02:41:52;;;;;;;8.13;4.20;;;;;;;;;;1736275;82;21434;-70
2022/08/01 02:44:23;;;;;;;6.92;4.30;;;;;;;;;;1725844;81;21499;-70
2022/08/01 02:47:02;;;;;;;7.97;4.80;;;;;;;;;;1720335;81;21122;-69
2022/08/01 02:49:32;;;;;;;12.45;5.08;;;;;;;;;;1745495;81;21030;-68
2022/08/01 02:52:01;;;;;;;8.93;5.15;;;;;;;;;;1749012;80;21047;-68
2022/08/01 02:54:29;;;;;;;11.05;5.45;;;;;;;;;;1730457;81;21039;-68
2022/08/01 02:56:57;;;;;;;12.65;5.17;;;;;;;;;;1729155;81;21069;-69
2022/08/01 02:59:25;;;;;;;15.85;5.85;;;;;;;;;;1734669;81;21066;-68
2022/08/01 03:01:56;;;;;;;14.28;5.62;;;;;;;;;;1733357;81;21551;-68
2022/08/01 03:04:24;;;;;;;10.82;5.80;;;;;;;;;;1713031;81;21564;-68
2022/08/01 03:06:54;;;;;;;12.50;5.75;;;;;;;;;;1678816;83;21067;-68
2022/08/01 03:09:21;;;;;;;13.45;5.97;;;;;;;;;;1673520;84;21087;-69
2022/08/01 03:11:50;;;;;;;12.18;5.80;;;;;;;;;;1676437;84;21062;-69
2022/08/01 03:14:20;;;;;;;9.15;6.10;;;;;;;;;;1713028;81;21012;-69
2022/08/01 03:16:47;;;;;;;9.13;5.67;;;;;;;;;;1725380;81;21016;-69
2022/08/01 03:19:16;;;;;;;9.68;6.10;;;;;;;;;;1736742;81;21015;-69
2022/08/01 03:21:43;;;;;;;12.82;5.90;;;;;;;;;;1718377;81;21078;-69
2022/08/01 03:24:11;;;;;;;11.18;6.00;;;;;;;;;;1721677;80;21023;-69
2022/08/01 03:26:39;;;;;;;12.23;6.00;;;;;;;;;;1702789;82;21088;-69
2022/08/01 03:29:09;;;;;;;14.30;6.47;;;;;;;;;;1694473;83;21194;-68
2022/08/01 03:31:38;;;;;;;11.38;5.75;;;;;;;;;;1686482;82;21000;-69
2022/08/01 03:34:05;;;;;;;11.03;5.90;;;;;;;;;;1684951;83;21067;-68
2022/08/01 03:36:33;;;;;;;12.70;6.53;;;;;;;;;;1723464;82;21029;-69
2022/08/01 03:39:03;;;;;;;13.62;6.37;;;;;;;;;;1694011;83;21099;-68
2022/08/01 03:41:33;;;;;;;17.67;6.33;;;;;;;;;;1712636;82;21069;-69
2022/08/01 03:44:05;;;;;;;11.22;6.12;;;;;;;;;;1690500;83;21016;-70
2022/08/01 03:46:48;;;;;;;10.28;5.92;;;;;;;;;;1698200;83;21039;-69
2022/08/01 03:49:23;;;;;;;11.70;6.10;;;;;;;;;;1717546;81;21471;-69
2022/08/01 03:51:51;;;;;;;10.60;6.03;;;;;;;;;;1726323;81;21039;-69
2022/08/01 03:54:24;;;;;;;12.85;6.20;;;;;;;;;;1723860;81;21504;-69
2022/08/01 03:56:52;;;;;;;11.63;6.22;;;;;;;;;;1716254;81;21004;-69
2022/08/01 03:59:19;;;;;;;12.82;6.65;;;;;;;;;;1729416;82;21036;-68
2022/08/01 04:01:46;;;;;;;9.30;6.12;;;;;;;;;;1685503;83;21594;-69
2022/08/01 04:04:13;;;;;;;11.18;6.03;;;;;;;;;;1672861;83;21459;-68
2022/08/01 04:06:41;;;;;;;9.15;5.80;;;;;;;;;;1722300;81;21531;-70
2022/08/01 04:09:10;;;;;;;12.50;6.10;;;;;;;;;;1702259;83;21056;-69
2022/08/01 04:11:36;;;;;;;10.78;6.22;;;;;;;;;;1662379;84;21654;-69
2022/08/01 04:14:03;;;;;;;11.65;6.47;;;;;;;;;;1736619;80;21083;-68
2022/08/01 04:16:30;;;;;;;11.63;6.08;;;;;;;;;;1744620;82;21095;-68
2022/08/01 04:18:57;;;;;;;13.90;6.00;;;;;;;;;;1741244;81;21067;-68
2022/08/01 04:21:30;;;;;;;13.68;6.25;;;;;;;;;;1729649;81;21051;-68
2022/08/01 04:23:59;;;;;;;13.15;6.85;;;;;;;;;;1725129;81;21574;-68
2022/08/01 04:26:26;;;;;;;16.07;7.45;;;;;;;;;;1735696;81;21661;-68
2022/08/01 04:28:54;;;;;;;17.37;7.92;;;;;;;;;;1717260;81;20992;-68
2022/08/01 04:31:25;;;;;;;18.62;7.70;;;;;;;;;;1700739;82;21728;-68
2022/08/01 04:33:53;;;;;;;15.15;7.03;;;;;;;;;;1726755;81;21043;-68
2022/08/01 04:36:23;;;;;;;17.20;7.50;;;;;;;;;;1711121;81;21522;-68
2022/08/01 04:38:52;;;;;;;15.18;7.37;;;;;;;;;;1687771;81;21060;-68
2022/08/01 04:41:20;;;;;;;17.73;7.37;;;;;;;;;;1670348;84;21581;-67
2022/08/01 04:43:47;;;;;;;14.80;7.75;;;;;;;;;;1721493;81;21075;-67
2022/08/01 04:46:15;;;;;;;22.65;9.10;;;;;;;;;;1724431;81;21114;-67
2022/08/01 04:48:41;;;;;;;17.00;8.88;;;;;;;;;;1696506;82;21103;-67
2022/08/01 04:51:15;;;;;;;21.48;9.63;;;;;;;;;;1667125;85;21053;-68
2022/08/01 04:53:43;;;;;;;17.60;9.20;;;;;;;;;;1668155;84;21089;-67
2022/08/01 04:56:12;;;;;;;16.55;7.83;;;;;;;;;;1658283;83;21123;-68
2022/08/01 04:58:41;;;;;;;14.70;7.47;;;;;;;;;;1668355;85;21151;-68
2022/08/01 05:01:09;;;;;;;12.07;6.55;;;;;;;;;;1697287;82;21118;-69
2022/08/01 05:03:37;;;;;;;13.78;6.83;;;;;;;;;;1708043;81;21087;-68
2022/08/01 05:06:04;;;;;;;12.25;6.50;;;;;;;;;;1720432;82;21043;-70
2022/08/01 05:08:31;;;;;;;14.75;7.15;;;;;;;;;;1704763;81;21039;-69
2022/08/01 05:10:57;;;;;;;13.10;6.92;;;;;;;;;;1709009;82;21035;-69
2022/08/01 05:13:25;;;;;;;11.83;6.80;;;;;;;;;;1699065;80;21674;-69
2022/08/01 05:15:52;;;;;;;10.30;7.12;;;;;;;;;;1682901;84;21516;-69
2022/08/01 05:18:19;;;;;;;13.53;7.17;;;;;;;;;;1681842;83;21496;-70
2022/08/01 05:20:47;;;;;;;15.78;7.90;;;;;;;;;;1669655;84;21585;-70
2022/08/01 05:23:13;;;;;;;15.58;8.00;;;;;;;;;;1720615;81;21523;-70
2022/08/01 05:25:40;;;;;;;14.60;8.18;;;;;;;;;;1694841;81;21142;-70
2022/08/01 05:28:07;;;;;;;16.97;8.35;;;;;;;;;;1701093;82;21096;-71
2022/08/01 05:30:35;;;;;;;12.15;7.95;;;;;;;;;;1696815;82;21521;-71
2022/08/01 05:33:02;;;;;;;13.65;8.45;;;;;;;;;;1711820;81;21011;-71
2022/08/01 05:35:29;;;;;;;16.52;8.63;;;;;;;;;;1699591;81;21505;-70
2022/08/01 05:37:56;;;;;;;17.17;8.08;;;;;;;;;;1710857;82;21065;-70
2022/08/01 05:40:22;;;;;;;12.45;8.13;;;;;;;;;;1742776;80;21008;-71
2022/08/01 05:42:49;;;;;;;14.75;8.55;;;;;;;;;;1770643;80;21000;-70
2022/08/01 05:45:16;;;;;;;11.53;8.13;;;;;;;;;;1758997;80;21035;-70
2022/08/01 05:47:43;;;;;;;15.98;8.88;;;;;;;;;;1724239;81;21011;-69
2022/08/01 05:50:10;;;;;;;16.37;8.70;;;;;;;;;;1750561;80;20979;-70
2022/08/01 05:52:37;;;;;;;15.48;7.97;;;;;;;;;;1733479;80;21019;-70
2022/08/01 05:55:06;;;;;;;14.03;7.95;;;;;;;;;;1725507;80;20983;-71
2022/08/01 05:57:33;;;;;;;15.23;8.40;;;;;;;;;;1734847;80;21079;-72
2022/08/01 06:00:01;;;;;;;11.78;8.25;;;;;;;;;;1730419;81;21574;-70
2022/08/01 06:02:30;;;;;;;12.30;7.90;;;;;;;;;;1726943;80;21099;-70
2022/08/01 06:04:58;;;;;;;10.70;8.00;;;;;;;;;;1713981;83;21086;-69
2022/08/01 06:07:26;;;;;;;11.95;8.33;;;;;;;;;;1715441;80;21580;-70
2022/08/01 06:09:52;;;;;;;13.93;8.58;;;;;;;;;;1722228;82;21004;-69
2022/08/01 06:12:20;;;;;;;14.00;9.13;;;;;;;;;;1725173;81;21027;-71
2022/08/01 06:14:47;;;;;;;14.90;8.05;;;;;;;;;;1739398;81;21024;-70
2022/08/01 06:17:13;;;;;;;15.38;8.38;;;;;;;;;;1732954;81;21051;-70
2022/08/01 06:19:40;;;;;;;17.02;8.63;;;;;;;;;;1707373;81;21042;-70
2022/08/01 06:22:07;;;;;;;12.53;8.13;;;;;;;;;;1715526;81;21037;-69
2022/08/01 06:24:34;;;;;;;15.50;8.63;;;;;;;;;;1726179;81;21051;-71
2022/08/01 06:27:02;;;;;;;10.23;7.92;;;;;;;;;;1710198;81;21047;-70
2022/08/01 06:29:32;;;;;;;13.72;8.95;;;;;;;;;;1726350;80;21531;-70
2022/08/01 06:32:00;;;;;;;15.95;8.50;;;;;;;;;;1705729;80;21505;-71
2022/08/01 06:34:27;;;;;;;15.30;9.18;;;;;;;;;;1735405;80;21077;-70
2022/08/01 06:36:53;;;;;;;17.42;9.55;;;;;;;;;;1718690;81;21035;-71
2022/08/01 06:39:20;;;;;;;15.43;9.80;;;;;;;;;;1721981;82;21011;-70
2022/08/01 06:41:48;;;;;;;17.15;9.58;;;;;;;;;;1721218;82;21008;-70
2022/08/01 06:44:15;;;;;;;12.25;8.60;;;;;;;;;;1698706;82;21031;-72
2022/08/01 06:46:42;;;;;;;14.90;8.10;;;;;;;;;;1666334;82;21040;-70
2022/08/01 06:49:08;;;;;;;14.90;8.23;;;;;;;;;;1711893;81;21070;-70
2022/08/01 06:51:35;;;;;;;12.60;8.23;;;;;;;;;;1716754;82;21063;-70
2022/08/01 06:54:02;;;;;;;12.45;7.62;;;;;;;;;;1732183;82;21052;-70
2022/08/01 06:56:31;;;;;;;12.98;7.22;;;;;;;;;;1728058;80;21048;-70
2022/08/01 06:59:00;;;;;;;9.85;7.50;;;;;;;;;;1705740;82;21016;-71
2022/08/01 07:01:28;;;;;;;13.20;7.92;;;;;;;;;;1735939;81;21070;-70
2022/08/01 07:03:54;;;;;;;13.28;7.92;;;;;;;;;;1733176;81;21043;-70
2022/08/01 07:06:23;;;;;;;11.75;7.47;;;;;;;;;;1708662;82;21544;-70
2022/08/01 07:08:51;;;;;;;14.03;7.95;;;;;;;;;;1723407;81;21039;-69
2022/08/01 07:11:18;;;;;;;11.48;7.70;;;;;;;;;;1733467;81;21007;-69
2022/08/01 07:13:49;;;;;;;13.93;8.30;;;;;;;;;;1711241;82;21091;-70
2022/08/01 07:16:13;;;;;;;13.80;7.97;;;;;;;;;;1715600;82;21277;-69
2022/08/01 07:18:41;;;;;;;12.13;7.65;;;;;;;;;;1743333;82;21047;-70
2022/08/01 07:21:07;;;;;;;14.68;8.33;;;;;;;;;;1721666;82;21047;-71
2022/08/01 07:23:34;;;;;;;13.58;8.53;;;;;;;;;;1708922;82;21039;-70
2022/08/01 07:26:03;;;;;;;14.87;9.13;;;;;;;;;;1716446;81;21153;-70
2022/08/01 07:28:30;;;;;;;21.35;11.85;;;;;;;;;;1732116;82;21507;-70
2022/08/01 07:30:57;;;;;;;19.12;12.05;;;;;;;;;;1727046;80;21055;-69
2022/08/01 07:33:24;;;;;;;21.80;12.30;;;;;;;;;;1716416;82;21043;-69
2022/08/01 07:35:51;;;;;;;20.25;12.65;;;;;;;;;;1741985;82;21570;-69
2022/08/01 07:38:18;;;;;;;19.70;13.75;;;;;;;;;;1732250;81;21023;-69
2022/08/01 07:40:44;;;;;;;21.73;14.28;;;;;;;;;;1718831;81;21100;-70
2022/08/01 07:43:11;;;;;;;17.15;13.40;;;;;;;;;;1729532;81;21045;-70
2022/08/01 07:45:38;;;;;;;19.00;10.82;;;;;;;;;;1718698;82;21031;-69
2022/08/01 07:48:06;;;;;;;14.60;9.90;;;;;;;;;;1715722;82;21046;-69
2022/08/01 07:50:34;;;;;;;14.07;8.90;;;;;;;;;;1750178;82;21055;-69
2022/08/01 07:53:02;;;;;;;15.75;8.68;;;;;;;;;;1737115;80;21610;-71
2022/08/01 07:55:29;;;;;;;15.78;7.70;;;;;;;;;;1727523;81;21613;-70
2022/08/01 07:57:56;;;;;;;11.68;7.95;;;;;;;;;;1729847;82;21083;-70
2022/08/01 08:00:23;;;;;;;10.98;7.25;;;;;;;;;;1723058;82;21055;-70
2022/08/01 08:02:50;;;;;;;11.33;7.67;;;;;;;;;;1725356;82;21019;-70
2022/08/01 08:05:16;;;;;;;11.35;7.30;;;;;;;;;;1717554;81;21066;-69
2022/08/01 08:07:45;;;;;;;11.10;7.28;;;;;;;;;;1753115;82;21051;-70
2022/08/01 08:10:12;;;;;;;8.38;7.33;;;;;;;;;;1745121;82;21524;-70
2022/08/01 08:12:38;;;;;;;11.90;7.03;;;;;;;;;;1733466;81;21117;-69
2022/08/01 08:15:06;;;;;;;9.95;6.90;;;;;;;;;;1708677;82;21038;-71
2022/08/01 08:17:33;;;;;;;10.68;7.22;;;;;;;;;;1741936;81;21036;-71
2022/08/01 08:20:00;;;;;;;12.20;7.30;;;;;;;;;;1710988;82;21062;-69
2022/08/01 08:22:27;;;;;;;10.75;7.85;;;;;;;;;;1718583;82;21173;-69
2022/08/01 08:24:54;;;;;;;10.23;7.65;;;;;;;;;;1714011;82;21542;-69
2022/08/01 08:27:20;;;;;;;11.28;8.23;;;;;;;;;;1738022;82;21604;-70
2022/08/01 08:29:47;;;;;;;9.90;7.53;;;;;;;;;;1735291;82;21080;-68
2022/08/01 08:32:14;;;;;;;11.50;8.00;;;;;;;;;;1720288;82;21035;-69
2022/08/01 08:34:41;;;;;;;9.68;7.87;;;;;;;;;;1733690;82;21090;-71
2022/08/01 08:37:08;;;;;;;11.68;7.62;;;;;;;;;;1728005;81;21503;-70
2022/08/01 08:39:35;;;;;;;10.72;7.33;;;;;;;;;;1712865;82;21025;-70
2022/08/01 08:42:07;;;;;;;11.05;7.42;;;;;;;;;;1723970;82;21133;-69
2022/08/01 08:44:34;;;;;;;11.28;7.15;;;;;;;;;;1740569;82;21032;-69
2022/08/01 08:47:04;;;;;;;12.55;7.60;;;;;;;;;;1730061;82;21304;-69
2022/08/01 08:49:32;;;;;;;12.25;7.40;;;;;;;;;;1730083;81;22504;-69
2022/08/01 08:52:00;;;;;;;8.58;7.05;;;;;;;;;;1743094;80;21038;-70
2022/08/01 08:54:27;;;;;;;10.30;7.55;;;;;;;;;;1739419;80;21051;-69
2022/08/01 08:56:55;;;;;;;12.35;7.33;;;;;;;;;;1731871;80;21019;-70
2022/08/01 08:59:24;;;;;;;12.10;7.97;;;;;;;;;;1743541;80;21122;-71
2022/08/01 09:01:51;;;;;;;11.03;7.60;;;;;;;;;;1729535;81;21132;-69
2022/08/01 09:04:18;;;;;;;14.40;7.83;;;;;;;;;;1725411;81;21026;-71
2022/08/01 09:06:45;;;;;;;8.70;7.12;;;;;;;;;;1715161;82;21014;-69
2022/08/01 09:09:13;;;;;;;12.43;8.13;;;;;;;;;;1695884;83;21055;-71
2022/08/01 09:11:40;;;;;;;12.50;8.05;;;;;;;;;;1720385;80;21067;-71
2022/08/01 09:14:10;;;;;;;10.80;7.55;;;;;;;;;;1741384;81;21537;-71
2022/08/01 09:16:39;;;;;;;13.10;7.60;;;;;;;;;;1739039;80;20999;-70
2022/08/01 09:19:09;;;;;;;8.90;7.25;;;;;;;;;;1737671;80;21362;-70
2022/08/01 09:21:36;;;;;;;9.75;7.90;;;;;;;;;;1736289;81;21555;-70
2022/08/01 09:24:05;;;;;;;10.48;7.25;;;;;;;;;;1746636;80;21054;-71
2022/08/01 09:26:34;;;;;;;9.85;7.40;;;;;;;;;;1741917;80;21094;-70
2022/08/01 09:29:08;;;;;;;13.13;7.30;;;;;;;;;;1738849;80;21061;-70
2022/08/01 09:31:42;;;;;;;12.73;7.92;;;;;;;;;;1716183;81;20999;-71
2022/08/01 09:34:10;;;;;;;13.28;7.80;;;;;;;;;;1718332;81;21003;-70
2022/08/01 09:36:48;;;;;;;8.25;7.40;;;;;;;;;;1703371;82;21058;-71
2022/08/01 09:39:15;;;;;;;11.25;7.47;;;;;;;;;;1733751;82;21007;-71
2022/08/01 09:41:42;;;;;;;8.95;7.35;;;;;;;;;;1712449;81;21512;-71
2022/08/01 09:44:09;;;;;;;10.63;7.37;;;;;;;;;;1738474;80;21851;-71
2022/08/01 09:46:36;;;;;;;9.80;7.58;;;;;;;;;;1734117;80;21071;-71
2022/08/01 09:49:06;;;;;;;11.28;7.20;;;;;;;;;;1740137;80;21488;-71
2022/08/01 09:51:36;;;;;;;9.48;8.00;;;;;;;;;;1742080;80;21047;-72
2022/08/01 09:54:06;;;;;;;12.50;7.47;;;;;;;;;;1731439;81;20987;-70
2022/08/01 09:56:42;;;;;;;11.60;8.18;;;;;;;;;;1736229;80;21075;-72
2022/08/01 09:59:09;;;;;;;13.30;7.83;;;;;;;;;;1736676;82;21030;-71
2022/08/01 10:01:45;;;;;;;11.50;7.80;;;;;;;;;;1747619;80;21063;-72
2022/08/01 10:04:14;;;;;;;11.45;7.95;;;;;;;;;;1741041;80;21038;-71
2022/08/01 10:06:45;;;;;;;12.20;7.97;;;;;;;;;;1738552;80;20999;-71
2022/08/01 10:09:13;;;;;;;12.47;8.15;;;;;;;;;;1731106;81;21478;-71
2022/08/01 10:11:42;;;;;;;13.43;8.35;;;;;;;;;;1745146;82;21019;-70
2022/08/01 10:14:11;;;;;;;13.08;8.78;;;;;;;;;;1743225;80;21546;-70
2022/08/01 10:16:38;;;;;;;11.25;8.45;;;;;;;;;;1718851;81;21046;-71
2022/08/01 10:19:07;;;;;;;9.85;8.43;;;;;;;;;;1741448;82;21088;-71
2022/08/01 10:21:36;;;;;;;11.90;8.73;;;;;;;;;;1732086;81;21508;-71
2022/08/01 10:24:05;;;;;;;11.88;9.38;;;;;;;;;;1734002;80;21094;-71
2022/08/01 10:26:33;;;;;;;13.65;8.90;;;;;;;;;;1719095;82;21049;-71
2022/08/01 10:29:01;;;;;;;11.18;9.15;;;;;;;;;;1742686;80;21061;-71
2022/08/01 10:31:32;;;;;;;14.30;9.13;;;;;;;;;;1741458;80;21432;-72
2022/08/01 10:33:57;;;;;;;11.83;9.03;;;;;;;;;;1725534;82;21543;-72
2022/08/01 10:36:24;;;;;;;12.28;9.50;;;;;;;;;;1764215;80;20964;-72
2022/08/01 10:38:52;;;;;;;11.25;8.70;;;;;;;;;;1769968;80;21511;-70
2022/08/01 10:41:20;;;;;;;11.63;9.08;;;;;;;;;;1753658;80;21035;-71
2022/08/01 10:43:47;;;;;;;19.82;9.10;;;;;;;;;;1742162;81;21014;-72
2022/08/01 10:46:14;;;;;;;13.62;9.20;;;;;;;;;;1750546;80;21023;-71
2022/08/01 10:49:05;;;;;;;12.63;9.33;;;;;;;;;;1772250;80;21083;-71
2022/08/01 10:51:37;;;;;;;13.58;9.28;;;;;;;;;;1753345;80;21157;-71
2022/08/01 10:54:05;;;;;;;11.08;9.25;;;;;;;;;;1767719;80;21543;-71
2022/08/01 10:56:50;;;;;;;12.23;9.33;;;;;;;;;;1752055;80;21110;-71
2022/08/01 10:59:25;;;;;;;12.58;9.98;;;;;;;;;;1751192;80;21035;-71
2022/08/01 11:02:00;;;;;;;10.82;9.18;;;;;;;;;;1750022;81;21052;-71
2022/08/01 11:04:42;;;;;;;14.35;10.20;;;;;;;;;;1752875;80;20988;-70
2022/08/01 11:07:15;;;;;;;11.83;10.32;;;;;;;;;;1755313;80;21050;-71
2022/08/01 11:09:45;;;;;;;14.20;9.95;;;;;;;;;;1770370;80;21013;-70
2022/08/01 11:12:16;;;;;;;16.95;11.18;;;;;;;;;;1754178;80;21039;-71
2022/08/01 11:15:04;;;;;;;16.85;11.68;;;;;;;;;;1754058;81;21118;-71
2022/08/01 11:17:51;;;;;;;15.78;10.63;;;;;;;;;;1765298;80;21339;-72
2022/08/01 11:20:35;;;;;;;14.13;11.20;;;;;;;;;;1748430;80;21022;-70
2022/08/01 11:23:06;;;;;;;12.75;9.98;;;;;;;;;;1735897;80;21198;-70
2022/08/01 11:25:41;;;;;;;14.33;10.98;;;;;;;;;;1723568;81;21087;-70
2022/08/01 11:28:23;;;;;;;18.23;12.58;;;;;;;;;;1743004;81;21067;-71
2022/08/01 11:30:52;;;;;;;15.20;13.15;;;;;;;;;;1730927;82;21075;-70
2022/08/01 11:33:39;;;;;;;16.90;12.15;;;;;;;;;;1712704;81;21075;-71
2022/08/01 11:36:15;;;;;;;15.98;12.10;;;;;;;;;;1723806;80;21066;-69
2022/08/01 11:38:49;;;;;;;15.18;12.13;;;;;;;;;;1724959;81;21087;-69
2022/08/01 11:41:33;;;;;;;14.33;11.93;;;;;;;;;;1728404;81;21483;-70
2022/08/01 11:44:13;;;;;;;15.08;11.50;;;;;;;;;;1734850;81;21049;-71
2022/08/01 11:47:04;;;;;;;17.95;12.28;;;;;;;;;;1721664;80;21099;-70
2022/08/01 11:49:35;;;;;;;14.65;11.95;;;;;;;;;;1738690;81;21031;-70
2022/08/01 11:52:05;;;;;;;17.70;11.90;;;;;;;;;;1720280;81;21047;-70
2022/08/01 11:54:40;;;;;;;16.20;11.68;;;;;;;;;;1744996;81;21570;-69
2022/08/01 11:57:10;;;;;;;16.70;11.45;;;;;;;;;;1716918;81;21095;-69
2022/08/01 11:59:40;;;;;;;18.95;12.37;;;;;;;;;;1737800;80;21044;-69
2022/08/01 12:02:22;;;;;;;15.03;12.25;;;;;;;;;;1734611;81;21024;-69
2022/08/01 12:04:57;;;;;;;18.65;12.53;;;;;;;;;;1722412;80;21133;-70
2022/08/01 12:07:26;;;;;;;17.20;11.70;;;;;;;;;;1735427;81;21532;-71
2022/08/01 12:10:05;;;;;;;16.67;11.95;;;;;;;;;;1718390;80;21121;-70
2022/08/01 12:12:34;;;;;;;15.58;11.80;;;;;;;;;;1716498;82;21577;-71
2022/08/01 12:15:04;;;;;;;14.10;10.80;;;;;;;;;;1745867;81;21103;-71
2022/08/01 12:17:46;;;;;;;13.15;11.15;;;;;;;;;;1725096;81;21042;-71
2022/08/01 12:20:16;;;;;;;15.03;10.70;;;;;;;;;;1723033;81;21090;-70
2022/08/01 12:22:43;;;;;;;13.28;11.15;;;;;;;;;;1723045;80;21087;-70
2022/08/01 12:25:15;;;;;;;17.55;12.23;;;;;;;;;;1727069;81;21078;-69
2022/08/01 12:27:45;;;;;;;15.50;12.87;;;;;;;;;;1719322;80;21538;-69
2022/08/01 12:30:14;;;;;;;16.65;13.10;;;;;;;;;;1740322;80;21070;-70
2022/08/01 12:32:43;;;;;;;19.65;13.60;;;;;;;;;;1731278;80;21020;-70
2022/08/01 12:35:13;;;;;;;15.08;11.88;;;;;;;;;;1731070;81;21080;-70
2022/08/01 12:37:43;;;;;;;15.32;13.15;;;;;;;;;;1729516;81;21036;-70
2022/08/01 12:40:13;;;;;;;14.63;13.03;;;;;;;;;;1745199;81;21031;-70
2022/08/01 12:42:46;;;;;;;17.40;12.80;;;;;;;;;;1733930;81;21051;-70
2022/08/01 12:45:15;;;;;;;17.20;13.40;;;;;;;;;;1731724;80;21062;-71
2022/08/01 12:47:43;;;;;;;16.70;14.07;;;;;;;;;;1735091;80;21047;-69
2022/08/01 12:50:13;;;;;;;17.57;12.95;;;;;;;;;;1715685;81;21372;-70
2022/08/01 12:52:40;;;;;;;17.87;13.38;;;;;;;;;;1719830;81;21043;-70
2022/08/01 12:55:10;;;;;;;20.00;13.88;;;;;;;;;;1729544;81;21056;-71
2022/08/01 12:57:40;;;;;;;15.43;12.90;;;;;;;;;;1707867;82;21039;-70
2022/08/01 13:00:17;;;;;;;19.62;13.83;;;;;;;;;;1730489;81;21059;-69
2022/08/01 13:02:45;;;;;;;17.37;13.98;;;;;;;;;;1734495;81;21047;-70
2022/08/01 13:05:12;;;;;;;17.55;13.93;;;;;;;;;;1726644;80;21038;-69
2022/08/01 13:07:43;;;;;;;20.62;14.70;;;;;;;;;;1720939;81;21027;-70
2022/08/01 13:10:11;;;;;;;18.98;13.85;;;;;;;;;;1723889;81;21042;-69
2022/08/01 13:12:40;;;;;;;16.57;13.48;;;;;;;;;;1733756;80;21078;-69
2022/08/01 13:15:18;;;;;;;21.23;13.78;;;;;;;;;;1729015;81;21035;-70
2022/08/01 13:17:45;;;;;;;18.48;14.13;;;;;;;;;;1725592;80;21190;-70
2022/08/01 13:20:29;;;;;;;16.48;13.13;;;;;;;;;;1727133;81;21042;-70
2022/08/01 13:33:47;;;;;;;24.70;16.15;;;;;;;23.64;100.00;100359.77;1770881;80;21422;-70
2022/08/01 13:36:15;;;;;;;26.27;17.87;;;;;;;23.53;100.00;100355.58;1754432;80;21027;-70
2022/08/01 15:46:29;;;;;;;23.18;19.57;;;;;;;;;;1827473;78;22932;-73
2022/08/01 15:48:55;;;;;;;28.65;23.40;;;;;;;;;;1788723;80;21051;-72
2022/08/01 15:51:22;;;;;;;32.38;24.18;;;;;;;;;;1788907;79;21074;-72
2022/08/01 15:53:49;;;;;;;33.15;24.90;;;;;;;;;;1789052;79;21511;-72
2022/08/01 15:56:15;;;;;;;28.87;22.15;;;;;;;;;;1788892;80;21451;-72
2022/08/01 15:58:42;;;;;;;23.02;19.12;;;;;;;;;;1789232;80;21483;-72
2022/08/01 16:01:08;;;;;;;22.27;17.10;;;;;;;;;;1788862;80;20999;-72
2022/08/01 16:03:35;;;;;;;18.35;15.63;;;;;;;;;;1789193;79;21079;-72
2022/08/01 16:06:01;;;;;;;18.98;15.10;;;;;;;;;;1788855;80;21503;-72
2022/08/01 16:08:28;;;;;;;19.52;15.28;;;;;;;;;;1788787;79;21023;-72
2022/08/01 16:10:55;;;;;;;18.70;15.18;;;;;;;;;;1789142;80;21044;-72
2022/08/01 16:13:21;;;;;;;18.57;14.58;;;;;;;;;;1788858;80;21086;-72
2022/08/01 16:15:48;;;;;;;17.92;14.33;;;;;;;;;;1788941;80;21020;-71
2022/08/01 16:18:14;;;;;;;15.08;13.10;;;;;;;;;;1788850;79;21534;-71
2022/08/01 16:20:42;;;;;;;17.07;12.20;;;;;;;;;;1788895;79;21163;-72
2022/08/01 16:23:08;;;;;;;15.08;12.40;;;;;;;;;;1788926;79;21059;-73
2022/08/01 16:25:35;;;;;;;16.17;12.25;;;;;;;;;;1789029;79;21471;-73
2022/08/01 16:28:02;;;;;;;15.43;11.97;;;;;;;;;;1788989;80;21044;-72
2022/08/01 16:30:29;;;;;;;15.58;11.60;;;;;;;;;;1788871;80;21036;-72
2022/08/01 16:32:56;;;;;;;15.50;11.85;;;;;;;;;;1789236;79;21500;-72
2022/08/01 16:35:22;;;;;;;12.75;10.20;;;;;;;;;;1763353;79;21093;-72
2022/08/01 16:37:49;;;;;;;13.15;10.20;;;;;;;;;;1754131;82;20995;-72
2022/08/01 16:40:15;;;;;;;13.83;10.20;;;;;;;;;;1754071;81;21094;-71
2022/08/01 16:42:42;;;;;;;13.00;10.03;;;;;;;;;;1754064;80;21101;-71
2022/08/01 16:45:09;;;;;;;12.80;10.20;;;;;;;;;;1754149;82;21081;-70
2022/08/01 16:47:37;;;;;;;17.12;10.35;;;;;;;;;;1754008;81;21023;-71
2022/08/01 16:50:04;;;;;;;16.70;10.72;;;;;;;;;;1754217;82;21881;-72
2022/08/01 16:52:30;;;;;;;15.28;10.63;;;;;;;;;;1754444;81;21041;-73
2022/08/01 16:54:57;;;;;;;14.55;11.15;;;;;;;;;;1754856;82;21010;-73
2022/08/01 16:57:24;;;;;;;14.70;11.18;;;;;;;;;;1746221;81;21006;-72
2022/08/01 16:59:50;;;;;;;16.82;10.88;;;;;;;;;;1746849;82;21481;-73